createdAt,value
2023-02-09T00:01:18.938Z,100.00
2023-02-09T00:03:45.468Z,100.00
2023-02-09T00:06:14.254Z,100.00
2023-02-09T00:08:41.162Z,100.00
2023-02-09T00:11:15.904Z,100.00
2023-02-09T00:13:43.609Z,100.00
2023-02-09T00:16:10.120Z,100.00
2023-02-09T00:18:36.681Z,100.00
2023-02-09T00:21:07.787Z,100.00
2023-02-09T00:23:37.220Z,100.00
2023-02-09T00:26:07.457Z,100.00
2023-02-09T00:28:33.883Z,100.00
2023-02-09T00:31:00.377Z,100.00
2023-02-09T00:33:26.842Z,100.00
2023-02-09T00:35:53.226Z,100.00
2023-02-09T00:38:19.604Z,100.00
2023-02-09T00:40:47.641Z,100.00
2023-02-09T00:43:14.011Z,99.10
2023-02-09T00:45:40.424Z,96.34
2023-02-09T00:48:06.835Z,96.21
2023-02-09T00:50:33.287Z,96.06
2023-02-09T00:52:59.663Z,95.48
2023-02-09T00:55:26.146Z,94.45
2023-02-09T00:57:52.548Z,93.54
2023-02-09T01:00:20.394Z,93.04
2023-02-09T01:02:47.187Z,93.33
2023-02-09T01:05:13.651Z,93.66
2023-02-09T01:07:40.050Z,93.63
2023-02-09T01:10:06.859Z,94.20
2023-02-09T01:12:33.314Z,95.39
2023-02-09T01:15:01.762Z,95.32
2023-02-09T01:17:28.757Z,94.60
2023-02-09T01:19:55.588Z,93.84
2023-02-09T01:22:22.276Z,93.96
2023-02-09T01:24:48.694Z,94.07
2023-02-09T01:27:15.075Z,93.97
2023-02-09T01:29:41.457Z,94.07
2023-02-09T01:32:07.891Z,94.38
2023-02-09T01:34:34.713Z,94.42
2023-02-09T01:37:01.101Z,93.92
2023-02-09T01:39:27.547Z,93.36
2023-02-09T01:41:53.997Z,92.80
2023-02-09T01:44:20.288Z,92.13
2023-02-09T01:46:46.705Z,91.44
2023-02-09T01:49:18.550Z,91.17
2023-02-09T01:51:49.328Z,90.65
2023-02-09T01:54:21.721Z,91.17
2023-02-09T01:56:52.400Z,91.24
2023-02-09T01:59:19.257Z,91.36
2023-02-09T02:01:45.881Z,91.17
2023-02-09T02:04:12.587Z,90.56
2023-02-09T02:06:39.736Z,90.47
2023-02-09T02:09:12.793Z,90.61
2023-02-09T02:11:40.407Z,90.38
2023-02-09T02:14:06.800Z,90.92
2023-02-09T02:16:48.746Z,91.11
2023-02-09T02:19:32.836Z,91.10
2023-02-09T02:22:14.351Z,91.71
2023-02-09T02:25:05.363Z,92.83
2023-02-09T02:27:44.565Z,93.53
2023-02-09T02:30:35.160Z,94.34
2023-02-09T02:33:24.141Z,93.70
2023-02-09T02:35:54.873Z,93.72
2023-02-09T02:38:35.210Z,94.45
2023-02-09T02:41:14.581Z,94.74
2023-02-09T02:43:48.593Z,95.27
2023-02-09T02:46:30.406Z,95.57
2023-02-09T02:49:10.619Z,95.28
2023-02-09T02:51:40.200Z,95.48
2023-02-09T02:54:14.775Z,95.78
2023-02-09T02:56:47.229Z,96.08
2023-02-09T02:59:17.859Z,96.34
2023-02-09T03:01:51.792Z,97.09
2023-02-09T03:04:18.334Z,96.88
2023-02-09T03:06:44.708Z,98.32
2023-02-09T03:09:11.550Z,98.69
2023-02-09T03:11:42.954Z,98.84
2023-02-09T03:14:22.593Z,99.26
2023-02-09T03:17:06.763Z,98.82
2023-02-09T03:19:36.811Z,98.45
2023-02-09T03:22:08.152Z,97.68
2023-02-09T03:24:53.647Z,96.66
2023-02-09T03:27:25.618Z,96.30
2023-02-09T03:29:55.140Z,96.18
2023-02-09T03:32:22.646Z,95.69
2023-02-09T03:34:49.267Z,94.97
2023-02-09T03:37:15.705Z,94.60
2023-02-09T03:39:42.093Z,94.07
2023-02-09T03:42:09.095Z,93.46
2023-02-09T03:44:35.478Z,93.00
2023-02-09T03:47:07.370Z,92.71
2023-02-09T03:49:36.445Z,92.12
2023-02-09T03:52:03.649Z,92.29
2023-02-09T03:54:31.234Z,91.91
2023-02-09T03:56:58.202Z,92.30
2023-02-09T03:59:27.609Z,93.22
2023-02-09T04:01:55.782Z,93.37
2023-02-09T04:04:22.314Z,94.38
2023-02-09T04:06:49.247Z,95.89
2023-02-09T04:09:16.154Z,96.41
2023-02-09T04:11:42.678Z,97.49
2023-02-09T04:14:09.808Z,98.87
2023-02-09T04:16:37.084Z,100.00
2023-02-09T04:19:04.391Z,100.00
2023-02-09T04:21:30.873Z,100.00
2023-02-09T04:23:57.321Z,100.00
2023-02-09T04:26:24.081Z,100.00
2023-02-09T04:28:50.471Z,100.00
2023-02-09T04:31:17.139Z,100.00
2023-02-09T04:33:43.672Z,100.00
2023-02-09T04:36:10.253Z,100.00
2023-02-09T04:38:36.812Z,100.00
2023-02-09T04:41:04.165Z,100.00
2023-02-09T04:43:31.069Z,100.00
2023-02-09T04:45:57.726Z,99.79
2023-02-09T04:48:25.566Z,99.27
2023-02-09T04:50:52.103Z,98.37
2023-02-09T04:53:19.572Z,98.55
2023-02-09T04:55:47.062Z,98.55
2023-02-09T04:58:34.745Z,98.46
2023-02-09T05:01:01.516Z,98.78
2023-02-09T05:03:28.278Z,98.38
2023-02-09T05:06:01.365Z,98.05
2023-02-09T05:08:28.266Z,98.05
2023-02-09T05:10:54.898Z,98.40
2023-02-09T05:13:22.175Z,98.62
2023-02-09T05:15:49.057Z,99.42
2023-02-09T05:18:16.235Z,99.50
2023-02-09T05:20:43.648Z,98.96
2023-02-09T05:23:10.734Z,97.90
2023-02-09T05:25:37.440Z,96.82
2023-02-09T05:28:04.244Z,96.06
2023-02-09T05:30:31.165Z,95.14
2023-02-09T05:32:58.041Z,95.11
2023-02-09T05:35:24.579Z,94.92
2023-02-09T05:37:51.185Z,94.95
2023-02-09T05:40:17.727Z,94.53
2023-02-09T05:42:44.155Z,94.91
2023-02-09T05:45:10.825Z,94.92
2023-02-09T05:47:37.254Z,96.10
2023-02-09T05:50:04.170Z,97.28
2023-02-09T05:52:30.572Z,97.83
2023-02-09T05:54:56.962Z,98.56
2023-02-09T05:57:23.391Z,98.75
2023-02-09T05:59:49.755Z,98.92
2023-02-09T06:02:16.250Z,99.31
2023-02-09T06:04:43.186Z,99.82
2023-02-09T06:07:11.899Z,99.75
2023-02-09T06:09:38.435Z,100.00
2023-02-09T06:12:04.969Z,100.00
2023-02-09T06:14:31.374Z,99.45
2023-02-09T06:16:57.791Z,98.48
2023-02-09T06:19:24.312Z,97.97
2023-02-09T06:21:50.693Z,98.01
2023-02-09T06:24:17.166Z,99.03
2023-02-09T06:26:43.609Z,98.74
2023-02-09T06:29:10.122Z,98.76
2023-02-09T06:31:38.071Z,98.55
2023-02-09T06:34:05.671Z,99.22
2023-02-09T06:36:32.227Z,99.36
2023-02-09T06:38:58.617Z,99.34
2023-02-09T06:41:24.993Z,99.65
2023-02-09T06:43:51.366Z,99.07
2023-02-09T06:46:17.877Z,98.48
2023-02-09T06:48:44.302Z,99.23
2023-02-09T06:51:12.897Z,100.00
2023-02-09T06:53:40.269Z,100.00
2023-02-09T06:56:07.385Z,100.00
2023-02-09T06:58:33.900Z,100.00
2023-02-09T07:01:05.505Z,100.00
2023-02-09T07:03:32.518Z,100.00
2023-02-09T07:06:17.277Z,100.00
2023-02-09T07:08:44.650Z,100.00
2023-02-09T07:11:16.722Z,100.00
2023-02-09T07:13:43.573Z,100.00
2023-02-09T07:16:10.988Z,100.00
2023-02-09T07:18:37.502Z,100.00
2023-02-09T07:21:06.503Z,100.00
2023-02-09T07:23:33.016Z,100.00
2023-02-09T07:26:06.943Z,100.00
2023-02-09T07:28:33.901Z,100.00
2023-02-09T07:31:06.343Z,100.00
2023-02-09T07:33:34.484Z,100.00
2023-02-09T07:36:04.705Z,98.48
2023-02-09T07:38:31.190Z,98.83
2023-02-09T07:41:01.637Z,98.39
2023-02-09T07:43:28.359Z,99.30
2023-02-09T07:46:03.086Z,99.42
2023-02-09T07:48:29.604Z,98.95
2023-02-09T07:50:56.196Z,98.04
2023-02-09T07:53:22.598Z,96.53
2023-02-09T07:55:49.030Z,95.83
2023-02-09T07:58:18.104Z,95.32
2023-02-09T08:00:46.335Z,94.33
2023-02-09T08:03:14.642Z,93.58
2023-02-09T08:06:12.353Z,91.85
2023-02-09T08:08:38.710Z,91.71
2023-02-09T08:11:05.469Z,92.23
2023-02-09T08:13:35.581Z,91.38
2023-02-09T08:16:04.850Z,90.33
2023-02-09T08:18:41.473Z,88.62
2023-02-09T08:21:10.679Z,87.58
2023-02-09T08:23:40.103Z,86.99
2023-02-09T08:26:09.835Z,85.76
2023-02-09T08:28:43.894Z,85.72
2023-02-09T08:31:16.007Z,86.03
2023-02-09T08:33:42.973Z,86.12
2023-02-09T08:36:10.166Z,86.18
2023-02-09T08:38:36.611Z,85.61
2023-02-09T08:41:04.802Z,85.02
2023-02-09T08:43:31.345Z,85.57
2023-02-09T08:46:09.463Z,85.96
2023-02-09T08:48:38.284Z,85.66
2023-02-09T08:51:06.300Z,86.17
2023-02-09T08:53:32.952Z,85.74
2023-02-09T08:55:59.538Z,84.81
2023-02-09T08:58:26.777Z,84.27
2023-02-09T09:00:56.818Z,83.84
2023-02-09T09:03:29.659Z,83.45
2023-02-09T09:06:00.778Z,83.64
2023-02-09T09:08:28.058Z,83.09
2023-02-09T09:10:54.653Z,82.25
2023-02-09T09:13:21.396Z,82.51
2023-02-09T09:15:48.095Z,82.51
2023-02-09T09:18:14.717Z,82.83
2023-02-09T09:20:41.852Z,82.87
2023-02-09T09:23:09.167Z,83.05
2023-02-09T09:25:35.553Z,81.77
2023-02-09T09:28:01.996Z,81.82
2023-02-09T09:30:28.407Z,82.74
2023-02-09T09:32:55.258Z,82.12
2023-02-09T09:35:21.677Z,81.63
2023-02-09T09:37:48.509Z,81.51
2023-02-09T09:40:25.526Z,80.45
2023-02-09T09:42:55.236Z,80.06
2023-02-09T09:45:23.882Z,78.49
2023-02-09T09:47:50.405Z,78.58
2023-02-09T09:50:24.971Z,78.21
2023-02-09T09:52:58.179Z,77.33
2023-02-09T09:55:27.477Z,76.95
2023-02-09T09:57:55.287Z,76.54
2023-02-09T10:00:48.156Z,74.69
2023-02-09T10:03:20.305Z,73.83
2023-02-09T10:05:56.577Z,72.88
2023-02-09T10:08:42.358Z,72.48
2023-02-09T10:11:11.412Z,73.17
2023-02-09T10:13:44.463Z,72.46
2023-02-09T10:16:25.610Z,71.20
2023-02-09T10:18:57.259Z,70.99
2023-02-09T10:21:26.043Z,70.40
2023-02-09T10:24:01.464Z,69.13
2023-02-09T10:26:32.269Z,68.72
2023-02-09T10:29:19.883Z,67.77
2023-02-09T10:32:02.371Z,67.10
2023-02-09T10:34:40.928Z,68.08
2023-02-09T10:37:17.597Z,67.53
2023-02-09T10:39:45.272Z,66.47
2023-02-09T10:42:22.654Z,66.67
2023-02-09T10:44:51.349Z,66.21
2023-02-09T10:47:20.720Z,65.87
2023-02-09T10:50:02.357Z,64.86
2023-02-09T10:52:34.623Z,64.69
2023-02-09T10:55:02.915Z,64.54
2023-02-09T10:57:38.832Z,64.34
2023-02-09T11:00:17.261Z,63.67
2023-02-09T11:02:55.278Z,63.66
2023-02-09T11:05:21.766Z,63.57
2023-02-09T11:08:11.062Z,62.15
2023-02-09T11:10:42.220Z,61.83
2023-02-09T11:13:18.677Z,61.43
2023-02-09T11:16:06.858Z,60.72
2023-02-09T11:18:34.290Z,60.35
2023-02-09T11:21:17.878Z,60.46
2023-02-09T11:24:10.583Z,59.64
2023-02-09T11:26:36.910Z,59.41
2023-02-09T11:29:29.601Z,59.05
2023-02-09T11:32:08.516Z,58.76
2023-02-09T11:34:40.921Z,58.67
2023-02-09T11:37:45.881Z,59.68
2023-02-09T11:40:21.398Z,58.73
2023-02-09T11:43:11.313Z,58.85
2023-02-09T11:45:56.803Z,58.80
2023-02-09T11:48:29.587Z,58.82
2023-02-09T11:51:14.812Z,58.29
2023-02-09T11:53:56.519Z,58.82
2023-02-09T11:56:24.812Z,59.58
2023-02-09T11:58:57.144Z,58.61
2023-02-09T12:01:23.413Z,59.09
2023-02-09T12:04:09.702Z,57.73
2023-02-09T12:06:52.607Z,57.61
2023-02-09T12:09:37.460Z,58.21
2023-02-09T12:12:09.936Z,58.35
2023-02-09T12:14:46.441Z,58.13
2023-02-09T12:17:42.170Z,58.03
2023-02-09T12:20:38.184Z,57.46
2023-02-09T12:23:07.886Z,57.82
2023-02-09T12:25:50.943Z,56.96
2023-02-09T12:28:37.654Z,55.31
2023-02-09T12:31:13.881Z,55.31
2023-02-09T12:33:46.240Z,55.07
2023-02-09T12:36:12.677Z,54.78
2023-02-09T12:38:50.832Z,53.64
2023-02-09T12:41:28.088Z,54.66
2023-02-09T12:44:09.610Z,54.30
2023-02-09T12:46:45.223Z,54.02
2023-02-09T12:49:11.646Z,54.40
2023-02-09T12:51:54.040Z,54.17
2023-02-09T12:54:39.199Z,55.38
2023-02-09T12:57:14.742Z,55.75
2023-02-09T12:59:41.021Z,55.15
2023-02-09T13:02:07.493Z,53.86
2023-02-09T13:04:37.390Z,54.11
2023-02-09T13:07:06.467Z,54.80
2023-02-09T13:09:37.428Z,54.84
2023-02-09T13:12:15.897Z,53.84
2023-02-09T13:14:49.620Z,54.82
2023-02-09T13:17:33.307Z,54.53
2023-02-09T13:20:22.586Z,54.58
2023-02-09T13:23:07.706Z,54.90
2023-02-09T13:25:40.490Z,55.38
2023-02-09T13:28:18.522Z,55.69
2023-02-09T13:30:45.950Z,56.06
2023-02-09T13:33:20.620Z,55.42
2023-02-09T13:35:57.246Z,54.07
2023-02-09T13:38:27.877Z,54.38
2023-02-09T13:40:55.354Z,55.27
2023-02-09T13:43:35.418Z,54.76
2023-02-09T13:46:02.659Z,54.97
2023-02-09T13:48:37.782Z,54.59
2023-02-09T13:51:16.472Z,53.75
2023-02-09T13:53:59.242Z,53.58
2023-02-09T13:56:26.174Z,54.46
2023-02-09T13:58:53.373Z,55.22
2023-02-09T14:01:34.641Z,55.36
2023-02-09T14:04:18.855Z,55.92
2023-02-09T14:06:56.927Z,55.66
2023-02-09T14:09:28.228Z,55.40
2023-02-09T14:11:58.380Z,54.96
2023-02-09T14:14:54.273Z,54.94
2023-02-09T14:17:38.875Z,55.18
2023-02-09T14:20:19.948Z,55.19
2023-02-09T14:22:55.137Z,53.79
2023-02-09T14:25:26.794Z,51.82
2023-02-09T14:27:53.441Z,51.74
2023-02-09T14:30:25.657Z,51.26
2023-02-09T14:32:54.366Z,51.37
2023-02-09T14:35:23.787Z,52.14
2023-02-09T14:37:52.597Z,52.22
2023-02-09T14:40:23.409Z,52.42
2023-02-09T14:42:59.089Z,53.35
2023-02-09T14:45:25.388Z,53.73
2023-02-09T14:47:51.822Z,54.06
2023-02-09T14:50:20.833Z,55.11
2023-02-09T14:52:49.789Z,54.79
2023-02-09T14:55:19.470Z,56.08
2023-02-09T14:57:46.035Z,56.26
2023-02-09T15:00:14.872Z,56.55
2023-02-09T15:02:41.767Z,56.46
2023-02-09T15:05:08.676Z,56.45
2023-02-09T15:07:37.289Z,56.34
2023-02-09T15:10:13.465Z,56.79
2023-02-09T15:12:39.877Z,56.93
2023-02-09T15:15:06.542Z,56.76
2023-02-09T15:17:32.989Z,56.83
2023-02-09T15:19:59.422Z,57.35
2023-02-09T15:22:25.849Z,57.64
2023-02-09T15:24:54.493Z,57.94
2023-02-09T15:27:27.236Z,58.13
2023-02-09T15:29:55.613Z,58.59
2023-02-09T15:32:24.135Z,58.65
2023-02-09T15:34:51.797Z,58.62
2023-02-09T15:37:26.377Z,58.87
2023-02-09T15:39:58.980Z,58.75
2023-02-09T15:42:43.900Z,59.29
2023-02-09T15:45:40.644Z,58.94
2023-02-09T15:48:08.164Z,58.85
2023-02-09T15:50:45.709Z,59.15
2023-02-09T15:53:18.623Z,59.51
2023-02-09T15:55:45.797Z,59.95
2023-02-09T15:58:14.466Z,60.23
2023-02-09T16:00:40.885Z,60.24
2023-02-09T16:03:15.678Z,60.29
2023-02-09T16:05:42.298Z,60.07
2023-02-09T16:08:21.217Z,60.23
2023-02-09T16:10:48.479Z,60.63
2023-02-09T16:13:16.797Z,60.68
2023-02-09T16:15:43.508Z,60.35
2023-02-09T16:18:10.058Z,60.57
2023-02-09T16:20:36.684Z,60.64
2023-02-09T16:23:19.674Z,60.84
2023-02-09T16:25:48.824Z,61.63
2023-02-09T16:28:15.307Z,62.05
2023-02-09T16:30:56.240Z,61.83
2023-02-09T16:33:24.625Z,61.94
2023-02-09T16:35:55.464Z,62.11
2023-02-09T16:38:23.301Z,62.39
2023-02-09T16:40:50.183Z,62.49
2023-02-09T16:43:18.372Z,62.53
2023-02-09T16:46:00.897Z,62.80
2023-02-09T16:48:30.589Z,63.05
2023-02-09T16:50:57.305Z,63.44
2023-02-09T16:53:32.645Z,63.29
2023-02-09T16:56:01.116Z,63.53
2023-02-09T16:58:28.159Z,63.90
2023-02-09T17:00:54.585Z,63.70
2023-02-09T17:03:24.571Z,64.33
2023-02-09T17:05:53.073Z,64.54
2023-02-09T17:08:24.021Z,65.33
2023-02-09T17:10:53.114Z,65.66
2023-02-09T17:13:22.286Z,65.74
2023-02-09T17:15:52.313Z,65.61
2023-02-09T17:18:21.588Z,65.52
2023-02-09T17:20:53.125Z,65.42
2023-02-09T17:23:23.298Z,65.44
2023-02-09T17:25:51.459Z,65.66
2023-02-09T17:28:19.130Z,65.65
2023-02-09T17:30:47.598Z,66.58
2023-02-09T17:33:25.978Z,66.60
2023-02-09T17:36:23.651Z,67.35
2023-02-09T17:38:41.015Z,67.95
2023-02-09T17:41:19.370Z,67.98
2023-02-09T17:43:46.362Z,67.49
2023-02-09T17:46:15.880Z,67.44
2023-02-09T17:48:42.506Z,67.56
2023-02-09T17:51:24.057Z,67.80
2023-02-09T17:53:50.533Z,68.90
2023-02-09T17:56:17.031Z,69.74
2023-02-09T17:58:44.419Z,70.56
2023-02-09T18:01:33.043Z,70.47
2023-02-09T18:04:01.560Z,70.64
2023-02-09T18:06:34.233Z,71.16
2023-02-09T18:09:01.879Z,71.28
2023-02-09T18:11:42.099Z,71.30
2023-02-09T18:14:13.224Z,72.16
2023-02-09T18:16:41.057Z,71.42
2023-02-09T18:19:07.476Z,71.51
2023-02-09T18:21:34.292Z,71.43
2023-02-09T18:24:00.744Z,71.51
2023-02-09T18:26:27.141Z,72.13
2023-02-09T18:28:53.555Z,71.86
2023-02-09T18:31:20.253Z,71.48
2023-02-09T18:33:46.714Z,71.36
2023-02-09T18:36:16.272Z,71.32
2023-02-09T18:38:42.766Z,71.40
2023-02-09T18:41:12.786Z,71.81
2023-02-09T18:43:39.685Z,71.98
2023-02-09T18:46:06.150Z,72.23
2023-02-09T18:48:32.847Z,72.26
2023-02-09T18:50:59.294Z,71.85
2023-02-09T18:53:25.690Z,71.65
2023-02-09T18:55:52.494Z,71.34
2023-02-09T18:58:18.890Z,71.57
2023-02-09T19:00:45.363Z,71.26
2023-02-09T19:03:17.498Z,71.70
2023-02-09T19:05:43.921Z,71.19
2023-02-09T19:08:10.387Z,71.53
2023-02-09T19:10:37.057Z,71.47
2023-02-09T19:13:04.215Z,71.70
2023-02-09T19:15:32.236Z,71.70
2023-02-09T19:17:59.317Z,72.24
2023-02-09T19:20:27.413Z,72.49
2023-02-09T19:22:54.194Z,72.59
2023-02-09T19:25:22.063Z,72.71
2023-02-09T19:27:48.698Z,72.71
2023-02-09T19:30:17.939Z,72.94
2023-02-09T19:32:44.353Z,73.02
2023-02-09T19:35:11.038Z,73.07
2023-02-09T19:37:38.652Z,72.86
2023-02-09T19:40:10.709Z,73.98
2023-02-09T19:42:37.109Z,74.01
2023-02-09T19:45:03.761Z,74.68
2023-02-09T19:47:30.151Z,74.87
2023-02-09T19:49:57.923Z,75.46
2023-02-09T19:52:26.065Z,75.98
2023-02-09T19:54:52.852Z,76.52
2023-02-09T19:57:20.088Z,77.47
2023-02-09T19:59:46.489Z,78.03
2023-02-09T20:02:16.351Z,78.62
2023-02-09T20:04:45.469Z,79.75
2023-02-09T20:07:13.306Z,80.55
2023-02-09T20:09:39.849Z,81.81
2023-02-09T20:12:06.311Z,82.47
2023-02-09T20:14:33.569Z,83.83
2023-02-09T20:17:00.353Z,86.21
2023-02-09T20:19:27.015Z,88.22
2023-02-09T20:21:53.400Z,89.82
2023-02-09T20:24:19.883Z,92.28
2023-02-09T20:26:46.645Z,95.11
2023-02-09T20:29:13.576Z,98.08
2023-02-09T20:31:41.590Z,100.00
2023-02-09T20:34:09.883Z,100.00
2023-02-09T20:36:38.642Z,100.00
2023-02-09T20:39:06.998Z,100.00
2023-02-09T20:41:33.454Z,100.00
2023-02-09T20:44:18.172Z,100.00
2023-02-09T20:46:56.914Z,100.00
2023-02-09T20:49:34.266Z,100.00
2023-02-09T20:52:00.632Z,100.00
2023-02-09T20:54:27.499Z,100.00
2023-02-09T20:56:53.927Z,100.00
2023-02-09T20:59:20.292Z,100.00
2023-02-09T21:01:47.960Z,100.00
2023-02-09T21:04:15.479Z,100.00
2023-02-09T21:06:42.500Z,100.00
2023-02-09T21:09:12.812Z,100.00
2023-02-09T21:11:39.681Z,100.00
2023-02-09T21:14:06.425Z,100.00
2023-02-09T21:16:32.923Z,100.00
2023-02-09T21:18:59.857Z,100.00
2023-02-09T21:21:27.316Z,100.00
2023-02-09T21:23:54.206Z,100.00
2023-02-09T21:26:22.653Z,100.00
2023-02-09T21:28:51.316Z,100.00
2023-02-09T21:31:21.125Z,100.00
2023-02-09T21:33:47.588Z,100.00
2023-02-09T21:36:14.127Z,100.00
2023-02-09T21:38:41.655Z,100.00
2023-02-09T21:41:33.396Z,100.00
2023-02-09T21:44:00.132Z,100.00
2023-02-09T21:46:26.948Z,100.00
2023-02-09T21:48:53.715Z,100.00
2023-02-09T21:51:20.608Z,100.00
2023-02-09T21:53:47.468Z,100.00
2023-02-09T21:56:14.093Z,100.00
2023-02-09T21:58:40.834Z,100.00
2023-02-09T22:01:07.525Z,100.00
2023-02-09T22:03:33.911Z,100.00
2023-02-09T22:06:01.695Z,100.00
2023-02-09T22:08:29.080Z,100.00
2023-02-09T22:10:55.838Z,100.00
2023-02-09T22:13:22.208Z,100.00
2023-02-09T22:15:48.581Z,100.00
2023-02-09T22:18:15.003Z,100.00
2023-02-09T22:20:42.798Z,100.00
2023-02-09T22:23:09.551Z,100.00
2023-02-09T22:25:36.135Z,100.00
2023-02-09T22:28:03.477Z,100.00
2023-02-09T22:30:29.940Z,100.00
2023-02-09T22:32:56.341Z,100.00
2023-02-09T22:35:22.965Z,100.00
2023-02-09T22:37:49.342Z,100.00
2023-02-09T22:40:15.870Z,100.00
2023-02-09T22:42:42.342Z,100.00
2023-02-09T22:45:09.166Z,100.00
2023-02-09T22:47:35.615Z,100.00
2023-02-09T22:50:02.026Z,100.00
2023-02-09T22:52:29.146Z,100.00
2023-02-09T22:54:55.665Z,100.00
2023-02-09T22:57:22.034Z,100.00
2023-02-09T22:59:48.434Z,100.00
2023-02-09T23:02:14.801Z,100.00
2023-02-09T23:04:41.234Z,100.00
2023-02-09T23:07:07.612Z,100.00
2023-02-09T23:09:34.001Z,100.00
2023-02-09T23:12:00.462Z,100.00
2023-02-09T23:14:27.138Z,100.00
2023-02-09T23:16:53.667Z,100.00
2023-02-09T23:19:20.677Z,100.00
2023-02-09T23:21:49.337Z,100.00
2023-02-09T23:24:18.049Z,100.00
2023-02-09T23:26:44.444Z,100.00
2023-02-09T23:29:13.448Z,100.00
2023-02-09T23:31:40.328Z,100.00
2023-02-09T23:34:06.890Z,100.00
2023-02-09T23:36:34.431Z,100.00
2023-02-09T23:39:03.694Z,100.00
2023-02-09T23:41:30.364Z,100.00
2023-02-09T23:43:57.091Z,100.00
2023-02-09T23:46:28.311Z,100.00
2023-02-09T23:48:55.215Z,100.00
2023-02-09T23:51:30.136Z,100.00
2023-02-09T23:53:58.124Z,100.00
2023-02-09T23:56:25.237Z,100.00
2023-02-09T23:58:52.440Z,100.00
